Time;durP1;ratioP1;P1;durP2;ratioP2;P2;SDS_P1;SDS_P2;PMS_P1;PMS_P2;Temp;Humidity;BMP_temperature;BMP_pressure;BME280_temperature;BME280_humidity;BME280_pressure;Samples;Min_cycle;Max_cycle;Signal;HPM_P1;HPM_P2
2023/11/03 00:06:43;;;;;;;;;;;4.50;99.90;;;;;;21339539;27;20286;-79
2023/11/03 00:16:46;;;;;;;;;;;4.50;99.90;;;;;;21358371;27;19915;-81
2023/11/03 00:26:54;;;;;;;;;;;4.60;99.90;;;;;;21363550;27;19911;-81
2023/11/03 00:36:55;;;;;;;;;;;4.30;99.90;;;;;;21349085;27;20278;-79
2023/11/03 00:46:56;;;;;;;;;;;4.20;99.90;;;;;;21342253;27;19912;-81
2023/11/03 00:56:56;;;;;;;;;;;4.50;99.90;;;;;;21328177;27;19915;-81
2023/11/03 01:06:57;;;;;;;;;;;4.70;99.90;;;;;;21360977;27;19933;-80
2023/11/03 01:16:58;;;;;;;;;;;4.80;99.90;;;;;;21377974;27;19914;-80
2023/11/03 01:26:59;;;;;;;;;;;4.80;99.90;;;;;;21375820;27;20014;-80
2023/11/03 01:37:00;;;;;;;;;;;4.80;99.90;;;;;;21292923;27;19930;-80
2023/11/03 01:47:00;;;;;;;;;;;4.90;99.90;;;;;;21295921;27;19915;-81
2023/11/03 01:57:02;;;;;;;;;;;4.70;99.90;;;;;;21292090;27;19922;-81
2023/11/03 02:07:02;;;;;;;;;;;4.70;99.90;;;;;;21293169;27;20321;-81
2023/11/03 02:17:03;;;;;;;;;;;4.80;99.90;;;;;;21302829;27;20307;-80
2023/11/03 02:27:04;;;;;;;;;;;4.70;99.90;;;;;;21283534;27;19918;-79
2023/11/03 02:37:04;;;;;;;;;;;4.80;99.90;;;;;;21278776;27;19964;-80
2023/11/03 02:47:06;;;;;;;;;;;5.00;99.90;;;;;;21315224;27;19911;-81
2023/11/03 02:57:07;;;;;;;;;;;5.20;99.90;;;;;;21314090;27;19967;-81
2023/11/03 03:07:07;;;;;;;;;;;5.30;99.90;;;;;;21295227;27;20326;-81
2023/11/03 03:17:08;;;;;;;;;;;5.30;99.90;;;;;;21316707;27;19960;-79
2023/11/03 03:27:09;;;;;;;;;;;5.30;99.90;;;;;;21312372;27;19911;-79
2023/11/03 03:37:12;;;;;;;;;;;5.40;99.90;;;;;;21322359;27;19915;-80
2023/11/03 03:47:12;;;;;;;;;;;5.40;99.90;;;;;;21311751;27;20349;-81
2023/11/03 03:57:13;;;;;;;;;;;5.40;99.90;;;;;;21318102;27;19915;-81
2023/11/03 04:07:14;;;;;;;;;;;5.50;99.90;;;;;;21295374;27;19939;-80
2023/11/03 04:17:14;;;;;;;;;;;5.50;99.90;;;;;;21309733;27;19915;-81
2023/11/03 04:27:15;;;;;;;;;;;5.60;99.90;;;;;;21314199;27;20278;-80
2023/11/03 04:37:16;;;;;;;;;;;5.70;99.90;;;;;;21284420;27;19915;-81
2023/11/03 04:47:16;;;;;;;;;;;5.80;99.90;;;;;;21300734;27;19915;-81
2023/11/03 04:57:18;;;;;;;;;;;5.70;99.90;;;;;;21336582;27;20449;-80
2023/11/03 05:07:18;;;;;;;;;;;5.80;99.90;;;;;;21319917;27;19916;-81
2023/11/03 05:17:19;;;;;;;;;;;5.90;99.90;;;;;;21329575;27;19927;-81
2023/11/03 05:27:20;;;;;;;;;;;5.90;99.90;;;;;;21335316;27;19971;-82
2023/11/03 05:37:21;;;;;;;;;;;5.90;99.90;;;;;;21336516;27;19943;-82
2023/11/03 05:47:21;;;;;;;;;;;5.90;99.90;;;;;;21327241;27;19912;-81
2023/11/03 05:57:22;;;;;;;;;;;6.00;99.90;;;;;;21337369;27;19936;-81
2023/11/03 06:07:24;;;;;;;;;;;6.10;99.90;;;;;;21320763;27;20128;-81
2023/11/03 06:17:25;;;;;;;;;;;6.10;99.90;;;;;;21320998;27;20452;-81
2023/11/03 06:27:26;;;;;;;;;;;6.10;99.90;;;;;;21320672;27;19911;-81
2023/11/03 06:37:26;;;;;;;;;;;6.20;99.90;;;;;;21316294;27;20312;-79
2023/11/03 06:47:27;;;;;;;;;;;6.20;99.90;;;;;;21294094;27;19911;-78
2023/11/03 06:57:28;;;;;;;;;;;6.20;99.90;;;;;;21310467;27;19983;-80
2023/11/03 07:07:28;;;;;;;;;;;6.20;99.90;;;;;;21278950;27;20377;-78
2023/11/03 07:17:29;;;;;;;;;;;6.30;99.90;;;;;;21298999;27;19916;-79
2023/11/03 07:27:30;;;;;;;;;;;6.40;99.90;;;;;;21312607;27;19911;-80
2023/11/03 07:37:30;;;;;;;;;;;6.50;99.90;;;;;;21297825;27;19915;-79
2023/11/03 07:47:32;;;;;;;;;;;6.60;99.90;;;;;;21251422;27;20026;-78
2023/11/03 07:57:34;;;;;;;;;;;6.30;99.90;;;;;;21264037;27;19998;-80
2023/11/03 08:07:35;;;;;;;;;;;6.40;99.90;;;;;;21295185;27;20075;-78
2023/11/03 08:17:36;;;;;;;;;;;6.50;99.90;;;;;;21279269;27;19940;-78
2023/11/03 08:27:37;;;;;;;;;;;6.60;99.90;;;;;;21287721;27;20002;-78
2023/11/03 08:37:41;;;;;;;;;;;6.80;99.90;;;;;;21300200;27;19964;-78
2023/11/03 08:47:45;;;;;;;;;;;7.00;99.90;;;;;;21305358;27;19911;-79
2023/11/03 08:57:46;;;;;;;;;;;7.20;99.90;;;;;;21274615;27;19926;-78
2023/11/03 09:07:48;;;;;;;;;;;7.10;99.90;;;;;;21264366;27;19920;-76
2023/11/03 09:17:48;;;;;;;;;;;7.30;99.90;;;;;;21304887;27;19915;-77
2023/11/03 09:27:49;;;;;;;;;;;7.30;99.90;;;;;;21297173;27;19922;-78
2023/11/03 09:37:49;;;;;;;;;;;7.40;99.90;;;;;;21297915;27;19915;-79
2023/11/03 09:47:51;;;;;;;;;;;7.50;99.90;;;;;;21300736;27;19979;-79
2023/11/03 09:57:57;;;;;;;;;;;7.60;99.90;;;;;;21301747;27;19919;-79
2023/11/03 10:08:05;;;;;;;;;;;7.90;99.90;;;;;;21300829;27;19990;-79
2023/11/03 10:18:06;;;;;;;;;;;7.80;99.90;;;;;;21309389;27;19926;-79
2023/11/03 10:28:09;;;;;;;;;;;7.90;99.90;;;;;;21312906;27;19930;-78
2023/11/03 10:38:10;;;;;;;;;;;8.00;99.90;;;;;;21348886;27;20002;-79
2023/11/03 10:48:11;;;;;;;;;;;7.90;99.90;;;;;;21353443;27;19911;-79
2023/11/03 10:58:11;;;;;;;;;;;7.90;99.90;;;;;;21362200;27;20001;-79
2023/11/03 11:08:12;;;;;;;;;;;8.10;99.90;;;;;;21383305;27;19911;-79
2023/11/03 11:18:14;;;;;;;;;;;8.20;99.90;;;;;;21364898;27;19922;-78
2023/11/03 11:28:32;;;;;;;;;;;8.40;99.90;;;;;;21338735;27;19922;-79
2023/11/03 11:38:32;;;;;;;;;;;8.30;99.90;;;;;;21287979;27;19919;-79
2023/11/03 11:48:33;;;;;;;;;;;8.40;99.90;;;;;;21290760;27;19911;-79
2023/11/03 11:58:34;;;;;;;;;;;8.70;99.90;;;;;;21276627;27;19916;-78
2023/11/03 12:08:36;;;;;;;;;;;8.70;99.90;;;;;;21287447;27;20411;-78
2023/11/03 12:18:38;;;;;;;;;;;9.10;99.90;;;;;;21307854;27;19916;-78
2023/11/03 12:28:40;;;;;;;;;;;9.20;99.90;;;;;;21243641;27;19923;-79
2023/11/03 12:38:43;;;;;;;;;;;9.20;99.90;;;;;;21283608;27;19923;-78
2023/11/03 12:48:43;;;;;;;;;;;9.00;99.90;;;;;;21285106;27;19911;-79
2023/11/03 12:58:45;;;;;;;;;;;8.80;99.90;;;;;;21271880;27;20006;-78
2023/11/03 13:08:46;;;;;;;;;;;8.60;99.90;;;;;;21262224;27;19915;-79
2023/11/03 13:18:48;;;;;;;;;;;8.80;99.90;;;;;;21295907;27;19922;-78
2023/11/03 13:28:49;;;;;;;;;;;9.00;99.90;;;;;;21287304;27;20397;-80
2023/11/03 13:38:53;;;;;;;;;;;9.10;99.90;;;;;;21285891;27;19915;-78
2023/11/03 13:48:54;;;;;;;;;;;9.00;99.90;;;;;;21278868;27;20329;-78
2023/11/03 13:58:56;;;;;;;;;;;9.10;99.90;;;;;;21259802;27;19915;-78
2023/11/03 14:08:57;;;;;;;;;;;9.10;99.90;;;;;;21292126;27;20386;-80
2023/11/03 14:18:58;;;;;;;;;;;9.80;99.90;;;;;;21299364;27;19941;-79
2023/11/03 14:28:58;;;;;;;;;;;9.60;99.90;;;;;;21292359;27;19968;-77
2023/11/03 14:38:59;;;;;;;;;;;10.10;99.90;;;;;;21306709;27;20533;-78
2023/11/03 14:49:06;;;;;;;;;;;10.10;99.90;;;;;;21275928;27;19912;-80
2023/11/03 14:59:07;;;;;;;;;;;10.50;99.90;;;;;;21286905;27;19915;-79
2023/11/03 15:09:07;;;;;;;;;;;10.30;99.90;;;;;;21304530;27;19916;-79
2023/11/03 15:19:09;;;;;;;;;;;10.00;99.90;;;;;;21293191;27;19915;-79
2023/11/03 15:29:09;;;;;;;;;;;10.10;99.90;;;;;;21257769;27;19916;-78
2023/11/03 15:39:25;;;;;;;;;;;10.00;99.90;;;;;;21294294;27;20013;-80
2023/11/03 15:49:29;;;;;;;;;;;9.50;99.90;;;;;;21255150;27;19916;-78
2023/11/03 15:59:29;;;;;;;;;;;9.20;99.90;;;;;;21293797;27;19927;-78
2023/11/03 16:09:33;;;;;;;;;;;8.60;99.90;;;;;;21267394;27;19911;-80
2023/11/03 16:19:34;;;;;;;;;;;8.20;99.90;;;;;;21262586;27;19922;-81
2023/11/03 16:29:37;;;;;;;;;;;7.70;99.90;;;;;;21271075;27;19915;-81
2023/11/03 16:39:38;;;;;;;;;;;7.60;99.90;;;;;;21278478;27;19923;-81
2023/11/03 16:49:38;;;;;;;;;;;7.50;99.90;;;;;;21264791;27;19911;-79
2023/11/03 16:59:39;;;;;;;;;;;7.40;99.90;;;;;;21255654;27;19927;-79
2023/11/03 17:09:39;;;;;;;;;;;7.40;99.90;;;;;;21281990;27;19918;-80
2023/11/03 17:19:40;;;;;;;;;;;7.20;99.90;;;;;;21295317;27;19915;-80
2023/11/03 17:29:43;;;;;;;;;;;6.70;99.90;;;;;;21308115;27;19916;-81
2023/11/03 17:39:44;;;;;;;;;;;6.20;99.90;;;;;;21380391;27;19926;-79
2023/11/03 17:49:47;;;;;;;;;;;5.90;99.90;;;;;;21376693;27;20069;-78
2023/11/03 17:59:48;;;;;;;;;;;5.70;99.90;;;;;;21351234;27;19916;-81
2023/11/03 18:09:49;;;;;;;;;;;5.40;99.90;;;;;;21349421;27;19969;-82
2023/11/03 18:19:52;;;;;;;;;;;5.10;99.90;;;;;;21341847;27;19916;-81
2023/11/03 18:29:52;;;;;;;;;;;4.90;99.90;;;;;;21304070;27;19942;-82
2023/11/03 18:39:53;;;;;;;;;;;4.80;99.90;;;;;;21266310;27;19922;-79
2023/11/03 18:49:55;;;;;;;;;;;4.90;99.90;;;;;;21258242;27;19919;-81
2023/11/03 18:59:56;;;;;;;;;;;5.10;99.90;;;;;;21240420;27;19923;-80
2023/11/03 19:09:56;;;;;;;;;;;5.10;99.90;;;;;;21271403;27;19915;-82
2023/11/03 19:19:57;;;;;;;;;;;4.90;99.90;;;;;;21262436;27;20006;-80
2023/11/03 19:29:58;;;;;;;;;;;4.60;99.90;;;;;;21251979;27;19916;-79
2023/11/03 19:39:59;;;;;;;;;;;4.30;99.90;;;;;;21271814;27;19937;-78
2023/11/03 19:49:59;;;;;;;;;;;4.00;99.90;;;;;;21335700;27;19986;-82
2023/11/03 20:00:00;;;;;;;;;;;4.00;99.90;;;;;;21293478;27;20596;-80
2023/11/03 20:10:01;;;;;;;;;;;3.80;99.90;;;;;;21308124;27;20391;-81
2023/11/03 20:20:03;;;;;;;;;;;3.80;99.90;;;;;;21286053;27;19922;-80
2023/11/03 20:30:04;;;;;;;;;;;3.70;99.90;;;;;;21280896;27;19923;-79
2023/11/03 20:40:08;;;;;;;;;;;3.40;99.90;;;;;;21295912;27;19915;-79
2023/11/03 20:50:09;;;;;;;;;;;3.60;99.90;;;;;;21305224;27;19934;-79
2023/11/03 21:00:12;;;;;;;;;;;3.70;99.90;;;;;;21294465;27;19915;-79
2023/11/03 21:10:15;;;;;;;;;;;4.00;99.90;;;;;;21281570;27;20017;-79
2023/11/03 21:20:17;;;;;;;;;;;3.90;99.90;;;;;;21316498;27;19919;-83
2023/11/03 21:30:17;;;;;;;;;;;4.20;99.90;;;;;;21303029;27;20406;-81
2023/11/03 21:40:18;;;;;;;;;;;4.30;99.90;;;;;;21341317;27;19965;-82
2023/11/03 21:50:23;;;;;;;;;;;4.40;99.90;;;;;;21334005;27;19911;-81
2023/11/03 22:00:26;;;;;;;;;;;4.50;99.90;;;;;;21339490;27;20285;-81
2023/11/03 22:10:27;;;;;;;;;;;4.60;99.90;;;;;;21354728;27;20428;-82
2023/11/03 22:20:30;;;;;;;;;;;4.70;99.90;;;;;;21346794;27;20377;-82
2023/11/03 22:30:32;;;;;;;;;;;4.80;99.90;;;;;;21338117;27;19915;-78
2023/11/03 22:40:33;;;;;;;;;;;4.80;99.90;;;;;;21343318;27;19915;-79
2023/11/03 22:50:33;;;;;;;;;;;5.00;99.90;;;;;;21311710;27;19912;-79
2023/11/03 23:00:36;;;;;;;;;;;5.10;99.90;;;;;;21339837;27;20362;-79
2023/11/03 23:10:36;;;;;;;;;;;5.10;99.90;;;;;;21330951;27;20337;-80
2023/11/03 23:20:37;;;;;;;;;;;5.10;99.90;;;;;;21351854;27;20009;-79
2023/11/03 23:30:38;;;;;;;;;;;5.10;99.90;;;;;;21357041;27;19922;-79
2023/11/03 23:40:39;;;;;;;;;;;5.00;99.90;;;;;;21339033;27;19915;-80
2023/11/03 23:50:39;;;;;;;;;;;5.20;99.90;;;;;;21335925;27;19911;-80
